Normand Flipper — 9V6929 — position and weather

sailwx.info

Track history (hours):
 
Tides and Currents Weather Stations Pressure Air Temp Water Temp Dewpoint Dewpoint Depression Visibility Wind Speed Wind Dir Waves Ship Positions

Normand Flipper

Last reported at 2017-Sep-12 00:20 UTC. Time now 2017-Sep-19 20:54 UTC.
Position N 57°31' W 001°32'.

Length 89 m; draft 4.9 m.

Type: Other ship. MMSI: 566522000.

Date/timePositionNaut miles runAvg speedWind from/ knotsBaromVisibWave heightAir tempDewpointWater temp
2017-Sep-12 00:20N 57°31' W 001°32'310.6
2017-Sep-12 00:00N 57°28' W 001°36'1211.6
2017-Sep-11 22:57N 57°18' W 001°49'612.3
2017-Sep-11 22:30N 57°13' W 001°54'612.4
2017-Sep-11 22:00N 57°09' W 002°03'1 2.9
2017-Sep-11 21:30N 57°09' W 002°05'0 0.0
2017-Sep-11 21:00N 57°09' W 002°05'0 0.0
2017-Sep-11 20:30N 57°09' W 002°05'0 0.0
2017-Sep-11 20:00N 57°09' W 002°05'0 0.0
2017-Sep-11 19:30N 57°09' W 002°05'0 0.0
2017-Sep-11 19:00N 57°09' W 002°05'0 0.0
2017-Sep-11 18:30N 57°09' W 002°05'0 0.0
2017-Sep-11 18:00N 57°09' W 002°05'0 0.0
2017-Sep-11 17:30N 57°09' W 002°05'0 0.0
2017-Sep-11 17:00N 57°09' W 002°05'0 0.0
2017-Sep-11 16:30N 57°09' W 002°05'0 0.0
2017-Sep-11 16:00N 57°09' W 002°05'0 0.0
2017-Sep-11 15:30N 57°09' W 002°05'0 0.0
2017-Sep-11 15:00N 57°09' W 002°05'0 0.0
2017-Sep-11 14:30N 57°09' W 002°05'0 0.0
2017-Sep-11 14:00N 57°09' W 002°05'0 0.0
2017-Sep-11 13:30N 57°09' W 002°05'0 0.0
2017-Sep-11 13:00N 57°09' W 002°05'0 0.0
2017-Sep-11 12:30N 57°09' W 002°05'0 0.0
2017-Sep-11 12:00N 57°09' W 002°05'0 0.0
2017-Sep-11 11:30N 57°09' W 002°05'0 0.0
2017-Sep-11 11:00N 57°09' W 002°05'2 3.5
2017-Sep-11 10:30N 57°09' W 002°02'4 7.4
2017-Sep-11 10:00N 57°10' W 001°56'4 8.6
2017-Sep-11 09:30N 57°14' W 001°51'4 8.5
2017-Sep-11 09:00N 57°17' W 001°45'18 8.2
2017-Sep-11 06:52N 57°33' W 001°31'4 8.9
2017-Sep-11 06:28N 57°36' W 001°31'5 9.4
2017-Sep-11 05:55N 57°41' W 001°27'  
2017-Sep-05 21:04N 57°38' W 001°22'311.7
2017-Sep-05 20:47N 57°35' W 001°26'612.1
2017-Sep-05 20:17N 57°30' W 001°32'312.2
2017-Sep-05 20:00N 57°28' W 001°36'1112.6
2017-Sep-05 19:10N 57°19' W 001°48'212.7
2017-Sep-05 19:00N 57°17' W 001°50'612.8
2017-Sep-05 18:30N 57°12' W 001°57'510.2
2017-Sep-05 18:00N 57°09' W 002°04'1 1.7
2017-Sep-05 17:30N 57°09' W 002°05'0 0.0
2017-Sep-05 17:00N 57°09' W 002°05'0 0.0
2017-Sep-05 16:30N 57°09' W 002°05'0 0.0
2017-Sep-05 16:00N 57°09' W 002°05'0 0.0
2017-Sep-05 15:30N 57°09' W 002°05'0 0.0
2017-Sep-05 15:00N 57°09' W 002°05'0 0.0
2017-Sep-05 14:30N 57°09' W 002°05'0 0.0
2017-Sep-05 14:00N 57°09' W 002°05'2 3.8
2017-Sep-05 13:30N 57°09' W 002°02'1 2.7
2017-Sep-05 13:00N 57°10' W 001°60'0 0.0
2017-Sep-05 12:30N 57°10' W 001°60'0 0.0
2017-Sep-05 12:00N 57°10' W 001°60'1 2.2
2017-Sep-05 11:30N 57°11' W 001°58'611.2
2017-Sep-05 11:00N 57°14' W 001°50'  
Track history (hours):
 
Tides and Currents Weather Stations Pressure Air Temp Water Temp Dewpoint Dewpoint Depression Visibility Wind Speed Wind Dir Waves Ship Positions

Normand Flipper

Last reported at 2017-Sep-12 00:20 UTC. Time now 2017-Sep-19 20:54 UTC.
Position N 57°31' W 001°32'.

Length 89 m; draft 4.9 m.

Type: Other ship. MMSI: 566522000.

Date/timePositionNaut miles runAvg speedWind from/ knotsBaromVisibWave heightAir tempDewpointWater temp
2017-Sep-12 00:20N 57°31' W 001°32'310.6
2017-Sep-12 00:00N 57°28' W 001°36'1211.6
2017-Sep-11 22:57N 57°18' W 001°49'612.3
2017-Sep-11 22:30N 57°13' W 001°54'612.4
2017-Sep-11 22:00N 57°09' W 002°03'1 2.9
2017-Sep-11 21:30N 57°09' W 002°05'0 0.0
2017-Sep-11 21:00N 57°09' W 002°05'0 0.0
2017-Sep-11 20:30N 57°09' W 002°05'0 0.0
2017-Sep-11 20:00N 57°09' W 002°05'0 0.0
2017-Sep-11 19:30N 57°09' W 002°05'0 0.0
2017-Sep-11 19:00N 57°09' W 002°05'0 0.0
2017-Sep-11 18:30N 57°09' W 002°05'0 0.0
2017-Sep-11 18:00N 57°09' W 002°05'0 0.0
2017-Sep-11 17:30N 57°09' W 002°05'0 0.0
2017-Sep-11 17:00N 57°09' W 002°05'0 0.0
2017-Sep-11 16:30N 57°09' W 002°05'0 0.0
2017-Sep-11 16:00N 57°09' W 002°05'0 0.0
2017-Sep-11 15:30N 57°09' W 002°05'0 0.0
2017-Sep-11 15:00N 57°09' W 002°05'0 0.0
2017-Sep-11 14:30N 57°09' W 002°05'0 0.0
2017-Sep-11 14:00N 57°09' W 002°05'0 0.0
2017-Sep-11 13:30N 57°09' W 002°05'0 0.0
2017-Sep-11 13:00N 57°09' W 002°05'0 0.0
2017-Sep-11 12:30N 57°09' W 002°05'0 0.0
2017-Sep-11 12:00N 57°09' W 002°05'0 0.0
2017-Sep-11 11:30N 57°09' W 002°05'0 0.0
2017-Sep-11 11:00N 57°09' W 002°05'2 3.5
2017-Sep-11 10:30N 57°09' W 002°02'4 7.4
2017-Sep-11 10:00N 57°10' W 001°56'4 8.6
2017-Sep-11 09:30N 57°14' W 001°51'4 8.5
2017-Sep-11 09:00N 57°17' W 001°45'18 8.2
2017-Sep-11 06:52N 57°33' W 001°31'4 8.9
2017-Sep-11 06:28N 57°36' W 001°31'5 9.4
2017-Sep-11 05:55N 57°41' W 001°27'  
2017-Sep-05 21:04N 57°38' W 001°22'311.7
2017-Sep-05 20:47N 57°35' W 001°26'612.1
2017-Sep-05 20:17N 57°30' W 001°32'312.2
2017-Sep-05 20:00N 57°28' W 001°36'1112.6
2017-Sep-05 19:10N 57°19' W 001°48'212.7
2017-Sep-05 19:00N 57°17' W 001°50'612.8
2017-Sep-05 18:30N 57°12' W 001°57'510.2
2017-Sep-05 18:00N 57°09' W 002°04'1 1.7
2017-Sep-05 17:30N 57°09' W 002°05'0 0.0
2017-Sep-05 17:00N 57°09' W 002°05'0 0.0
2017-Sep-05 16:30N 57°09' W 002°05'0 0.0
2017-Sep-05 16:00N 57°09' W 002°05'0 0.0
2017-Sep-05 15:30N 57°09' W 002°05'0 0.0
2017-Sep-05 15:00N 57°09' W 002°05'0 0.0
2017-Sep-05 14:30N 57°09' W 002°05'0 0.0
2017-Sep-05 14:00N 57°09' W 002°05'2 3.8
2017-Sep-05 13:30N 57°09' W 002°02'1 2.7
2017-Sep-05 13:00N 57°10' W 001°60'0 0.0
2017-Sep-05 12:30N 57°10' W 001°60'0 0.0
2017-Sep-05 12:00N 57°10' W 001°60'1 2.2
2017-Sep-05 11:30N 57°11' W 001°58'611.2
2017-Sep-05 11:00N 57°14' W 001°50'  

Dump ship's entire track history